x

Southwest Hawaii - 215nm Ssw Of Hilo, Hi (51002) Wave Buoy

12:50pm - Wed 1st Jul 2015 All times are HST. -10 hours from GMT.

  • Sig Wave height 6.9ft
  • Swell Direction
  • Peak Period 14s
  • Average Period 7s
  • Wind
    16mph, 18mph gusts
  • Sea Temp 81°f
  • Air Temp 80°f
  • Sea Pressure 1011mb
  • Southwest Hawaii - 215nm Ssw Of Hilo, Hi
  • Southwest Hawaii - 215nm Ssw Of Hilo, Hi

More Historic Weather Station data

Upgrade to MSW Pro to gain access to the past 30 days of data for over 8000 Wavebouys and Weather Stations around the globe.

Join Pro

Comparision Forecast

View Surf forecast
   
Wed 07/01 12:50pm 7ft 14s 7s 16 18 mph 1011mb 81f 80f
11:50am 6.5ft 9s 7s 16 18 mph 1011.4mb 81f 80f
10:50am 7ft 14s 8s 16 18 mph 1011.8mb 81f 80f
9:50am 7ft 14s 7s 13 16 mph 1011.8mb 81f 80f
8:50am 7ft 14s 7s 13 16 mph 1012mb 81f 81f
7:50am 7ft 14s 8s 13 16 mph 1011.8mb 81f 81f
6:50am 6.5ft 14s 7s 13 16 mph 1011.4mb 81f 80f
5:50am 7ft 9s 7s 13 16 mph 1011.1mb 80f 80f
4:50am 7ft 15s 7s 11 13 mph 1011mb 80f 79f
3:50am 7.5ft 15s 7s 16 18 mph 1011mb 81f 78f
2:50am 7ft 9s 7s 13 16 mph 1011.3mb 80f 80f
1:50am 6.5ft 15s 7s 13 16 mph 1012.2mb 80f 80f
12:50am 7ft 9s 7s 16 18 mph 1012.8mb 80f 80f
Tue 06/30 11:50pm 6.5ft 15s 7s 16 18 mph 1013.2mb 81f 80f
10:50pm 7ft 15s 7s 16 20 mph 1013.4mb 81f 80f
9:50pm 6.5ft 16s 7s 16 18 mph 1013.1mb 81f 80f
8:50pm 6.5ft 16s 7s 13 16 mph 1012.8mb 81f 80f
7:50pm 6.5ft 16s 7s 13 18 mph 1012.5mb 81f 79f
5:50pm 6.5ft 16s 7s 16 18 mph 1011.1mb 81f 81f
4:50pm 7ft 16s 7s 16 18 mph 1011mb 81f 80f
3:50pm 7ft 16s 7s 13 18 mph 1011mb 81f 80f
2:50pm 6ft 8s 6s 16 18 mph 1011.4mb 81f 80f
1:50pm 6ft 8s 6s 18 20 mph 1011.6mb 81f 80f
12:50pm 6ft 8s 6s 18 20 mph 1012.2mb 81f 80f
11:50am 6ft 8s 6s 18 22 mph 1012.5mb 81f 80f
10:50am 6ft 8s 6s 18 20 mph 1012.9mb 80f 80f
9:50am 6.5ft 8s 6s 20 22 mph 1013mb 80f 80f
8:50am 6ft 8s 6s 20 25 mph 1013.1mb 80f 80f
7:50am 6ft 9s 6s 20 25 mph 1012.9mb 80f 79f
6:50am 6ft 9s 6s 18 22 mph 1012.7mb 80f 80f
5:50am 6ft 8s 6s 18 20 mph 1012mb 80f 80f
4:50am 6ft 10s 6s 13 18 mph 1012.1mb 80f 79f
3:50am 6ft 9s 6s 18 20 mph 1012mb 80f 80f
2:50am 6.5ft 8s 6s 18 20 mph 1012.4mb 80f 80f
1:50am 6ft 9s 6s 16 18 mph 1012.9mb 80f 80f
12:50am 6ft 9s 6s 16 18 mph 1013.8mb 80f 80f
Mon 06/29 11:50pm 6ft 10s 6s 16 20 mph 1014.2mb 80f 80f
10:50pm 6ft 9s 6s 16 18 mph 1014.4mb 80f 80f
9:50pm 6.5ft 8s 6s 16 20 mph 1014mb 80f 80f
8:50pm 6.5ft 9s 6s 18 20 mph 1013.6mb 81f 80f
7:50pm 6ft 8s 6s 18 20 mph 1013mb 81f 80f
6:50pm 6ft 9s 6s 18 20 mph 1012.4mb 81f 80f
5:50pm 6ft 9s 6s 18 20 mph 1011.6mb 81f 81f
4:50pm 6.5ft 14s 6s 16 18 mph 1011.4mb 81f 80f
3:50pm 6ft 9s 6s 16 18 mph 1011.5mb 81f 80f
2:50pm 7ft 9s 6s 16 20 mph 1011.8mb 81f 80f
1:50pm 6.5ft 9s 6s 18 20 mph 1012.2mb 81f 80f
12:50pm 6.5ft 8s 6s 18 20 mph 1012.6mb 81f 80f
11:50am 6ft 9s 6s 18 20 mph 1013.2mb 80f 80f
10:50am 6.5ft 8s 6s 16 20 mph 1013.8mb 80f 80f
9:50am 5.5ft 8s 6s 18 22 mph 1014.1mb 80f 80f
8:50am 6ft 8s 6s 18 20 mph 1013.9mb 80f 80f
7:50am 6ft 9s 6s 18 20 mph 1013.7mb 80f 80f
6:50am 6ft 8s 6s 16 20 mph 1013.5mb 80f 80f
5:50am 6ft 8s 6s 16 18 mph 1012.9mb 80f 79f
4:50am 6ft 8s 6s 18 20 mph 1012.3mb 80f 79f
3:50am 6ft 8s 6s 18 20 mph 1012.4mb 80f 79f
2:50am 5.5ft 9s 6s 16 20 mph 1012.7mb 80f 80f
1:50am 5.5ft 8s 6s 16 20 mph 1013mb 80f 80f
12:50am 6ft 8s 6s 16 20 mph 1013.4mb 80f 80f
Sun 06/28 11:50pm 5ft 16s 6s 16 18 mph 1014mb 80f 80f
10:50pm 5.5ft 7s 6s 16 20 mph 1014.1mb 80f 80f
9:50pm 5.5ft 8s 6s 18 22 mph 1013.8mb 80f 80f
8:50pm 5.5ft 7s 6s 18 20 mph 1013.4mb 80f 80f
7:50pm 5ft 9s 6s 18 22 mph 1012.6mb 80f 80f
6:50pm 5.5ft 9s 6s 16 18 mph 1012.2mb 80f 80f
5:50pm 5.5ft 8s 6s 16 18 mph 1012.2mb 80f 80f
4:50pm 5.5ft 16s 6s 16 20 mph 1012.1mb 80f 80f
3:50pm 5ft 8s 5s 16 20 mph 1012.3mb 80f 80f
2:50pm 5.5ft 7s 6s 18 22 mph 1012.8mb 80f 80f
1:50pm 5ft 8s 5s 18 20 mph 1013.6mb 80f 80f
12:50pm 5ft 8s 6s 18 20 mph 1014.3mb 80f 80f
11:50am 5ft 8s 6s 16 20 mph 1014.8mb 80f 80f
10:50am 5ft 9s 6s 20 22 mph 1014.7mb 80f 80f
9:50am 5.5ft 9s 6s 16 20 mph 1015.1mb 80f 80f
8:50am 5.5ft 8s 6s 13 16 mph 1015.3mb 80f 80f
7:50am 5ft 8s 6s 16 18 mph 1014.9mb 80f 80f
6:50am 5.5ft 9s 6s 16 18 mph 1014.3mb 80f 80f
5:50am 5.5ft 9s 6s 16 18 mph 1013.7mb 80f 79f
4:50am 5.5ft 10s 6s 18 20 mph 1013.2mb 80f 79f
3:50am 6ft 8s 6s 16 20 mph 1013mb 80f 79f
2:50am 6ft 10s 6s 13 18 mph 1013.5mb 80f 79f
1:50am 6ft 8s 6s 16 18 mph 1013.9mb 80f 79f
12:50am  -   -   -  16 18 mph 1014.7mb 80f 79f